THY1SG LTFM-LTBZ
Flight info
| Callsign | THY1SG |
|---|---|
| Flight time | 0h 33m |
| Altitude | 25000 |
| Route | RATVU T35 NUMTI T409 KARGI |
| Aircraft | A319/M-SDE3FGHIRWY/LB1 |
Departure
| Time | 2026-04-26 10:13 |
|---|---|
| Airport | İstanbul Airport (LTFM) |
Arrival
| Time | 2026-04-26 10:46 |
|---|---|
| Airport | Zafer Airport (LTBZ) |
| Time | Latitude | Longitude | Altitude | Speed | Heading |
|---|---|---|---|---|---|
| 2026-04-26 09:42 | 41.27558 | 28.74753 | 334 ft | 0 kts | 179° |
| 2026-04-26 10:00 | 41.27559 | 28.74753 | 334 ft | 2 kts | 178° |
| 2026-04-26 10:01 | 41.27584 | 28.74749 | 330 ft | 4 kts | 160° |
| 2026-04-26 10:01 | 41.27606 | 28.74731 | 330 ft | 4 kts | 124° |
| 2026-04-26 10:01 | 41.27616 | 28.74700 | 333 ft | 4 kts | 94° |
| 2026-04-26 10:01 | 41.27616 | 28.74683 | 334 ft | 0 kts | 89° |
| 2026-04-26 10:05 | 41.27616 | 28.74700 | 334 ft | 3 kts | 89° |
| 2026-04-26 10:05 | 41.27617 | 28.74754 | 334 ft | 9 kts | 89° |
| 2026-04-26 10:06 | 41.27618 | 28.74847 | 334 ft | 11 kts | 89° |
| 2026-04-26 10:06 | 41.27620 | 28.74947 | 334 ft | 12 kts | 90° |
| 2026-04-26 10:06 | 41.27621 | 28.75062 | 334 ft | 14 kts | 89° |
| 2026-04-26 10:06 | 41.27623 | 28.75192 | 331 ft | 14 kts | 89° |
| 2026-04-26 10:07 | 41.27624 | 28.75314 | 334 ft | 11 kts | 97° |
| 2026-04-26 10:07 | 41.27556 | 28.75361 | 334 ft | 13 kts | 179° |
| 2026-04-26 10:07 | 41.27451 | 28.75364 | 331 ft | 17 kts | 179° |
| 2026-04-26 10:07 | 41.27330 | 28.75366 | 331 ft | 18 kts | 179° |
| 2026-04-26 10:08 | 41.27201 | 28.75369 | 333 ft | 17 kts | 179° |
| 2026-04-26 10:08 | 41.27104 | 28.75372 | 334 ft | 13 kts | 179° |
| 2026-04-26 10:08 | 41.27010 | 28.75374 | 332 ft | 14 kts | 179° |
| 2026-04-26 10:08 | 41.26910 | 28.75376 | 333 ft | 16 kts | 179° |
| 2026-04-26 10:09 | 41.26802 | 28.75379 | 331 ft | 14 kts | 179° |
| 2026-04-26 10:09 | 41.26697 | 28.75381 | 334 ft | 15 kts | 179° |
| 2026-04-26 10:09 | 41.26594 | 28.75383 | 330 ft | 14 kts | 179° |
| 2026-04-26 10:09 | 41.26488 | 28.75386 | 333 ft | 15 kts | 179° |
| 2026-04-26 10:10 | 41.26398 | 28.75388 | 334 ft | 8 kts | 179° |
| 2026-04-26 10:10 | 41.26346 | 28.75398 | 332 ft | 7 kts | 147° |
| 2026-04-26 10:10 | 41.26336 | 28.75445 | 332 ft | 1 kts | 91° |
| 2026-04-26 10:10 | 41.26336 | 28.75470 | 334 ft | 4 kts | 89° |
| 2026-04-26 10:11 | 41.26337 | 28.75499 | 334 ft | 1 kts | 89° |
| 2026-04-26 10:11 | 41.26337 | 28.75525 | 334 ft | 4 kts | 89° |
| 2026-04-26 10:11 | 41.26337 | 28.75582 | 334 ft | 9 kts | 89° |
| 2026-04-26 10:11 | 41.26355 | 28.75662 | 333 ft | 9 kts | 30° |
| 2026-04-26 10:12 | 41.26406 | 28.75665 | 333 ft | 8 kts | 359° |
| 2026-04-26 10:12 | 41.26520 | 28.75664 | 332 ft | 42 kts | 359° |
| 2026-04-26 10:12 | 41.27092 | 28.75654 | 331 ft | 118 kts | 359° |
| 2026-04-26 10:12 | 41.28097 | 28.75620 | 487 ft | 156 kts | 355° |
| 2026-04-26 10:13 | 41.29189 | 28.75593 | 1157 ft | 157 kts | 359° |
| 2026-04-26 10:13 | 41.30219 | 28.76019 | 1878 ft | 159 kts | 41° |
| 2026-04-26 10:13 | 41.31015 | 28.77020 | 2497 ft | 166 kts | 38° |
| 2026-04-26 10:13 | 41.32048 | 28.77915 | 2931 ft | 188 kts | 29° |
| 2026-04-26 10:14 | 41.33259 | 28.78820 | 3286 ft | 212 kts | 27° |
| 2026-04-26 10:14 | 41.34632 | 28.79823 | 3661 ft | 238 kts | 27° |
| 2026-04-26 10:14 | 41.36106 | 28.81051 | 4206 ft | 262 kts | 39° |
| 2026-04-26 10:14 | 41.37350 | 28.82888 | 5100 ft | 272 kts | 56° |
| 2026-04-26 10:15 | 41.38152 | 28.85195 | 6086 ft | 279 kts | 73° |
| 2026-04-26 10:15 | 41.38407 | 28.87781 | 7027 ft | 286 kts | 89° |
| 2026-04-26 10:15 | 41.38246 | 28.90434 | 7925 ft | 292 kts | 107° |
| 2026-04-26 10:15 | 41.37297 | 28.92773 | 8799 ft | 295 kts | 134° |
| 2026-04-26 10:16 | 41.35636 | 28.94335 | 9710 ft | 295 kts | 161° |
| 2026-04-26 10:16 | 41.33622 | 28.94807 | 10417 ft | 302 kts | 180° |
| 2026-04-26 10:16 | 41.31441 | 28.94870 | 10725 ft | 325 kts | 182° |
| 2026-04-26 10:16 | 41.29136 | 28.94837 | 11266 ft | 337 kts | 184° |
| 2026-04-26 10:17 | 41.26782 | 28.94696 | 12008 ft | 342 kts | 185° |
| 2026-04-26 10:17 | 41.24387 | 28.94498 | 12796 ft | 347 kts | 186° |
| 2026-04-26 10:17 | 41.21960 | 28.94277 | 13578 ft | 352 kts | 186° |
| 2026-04-26 10:17 | 41.19533 | 28.94057 | 14279 ft | 356 kts | 186° |
| 2026-04-26 10:18 | 41.17049 | 28.93843 | 14962 ft | 360 kts | 185° |
| 2026-04-26 10:18 | 41.14532 | 28.93640 | 15661 ft | 364 kts | 185° |
| 2026-04-26 10:18 | 41.11993 | 28.93447 | 16395 ft | 367 kts | 185° |
| 2026-04-26 10:18 | 41.09424 | 28.93259 | 17098 ft | 371 kts | 184° |
| 2026-04-26 10:19 | 41.06839 | 28.93071 | 17812 ft | 375 kts | 184° |
| 2026-04-26 10:19 | 41.04221 | 28.92874 | 18482 ft | 378 kts | 184° |
| 2026-04-26 10:19 | 41.01580 | 28.92669 | 19113 ft | 382 kts | 185° |
| 2026-04-26 10:19 | 40.98923 | 28.92401 | 19764 ft | 385 kts | 186° |
| 2026-04-26 10:20 | 40.96278 | 28.92072 | 20393 ft | 388 kts | 186° |
| 2026-04-26 10:20 | 40.94459 | 28.91827 | 20827 ft | 391 kts | 186° |
| 2026-04-26 10:20 | 40.90848 | 28.91332 | 21633 ft | 396 kts | 186° |
| 2026-04-26 10:20 | 40.88098 | 28.90981 | 22228 ft | 399 kts | 184° |
| 2026-04-26 10:21 | 40.85308 | 28.91043 | 22816 ft | 403 kts | 176° |
| 2026-04-26 10:21 | 40.82495 | 28.91272 | 23418 ft | 407 kts | 176° |
| 2026-04-26 10:21 | 40.79657 | 28.91508 | 23858 ft | 410 kts | 176° |
| 2026-04-26 10:21 | 40.76801 | 28.91742 | 23992 ft | 412 kts | 176° |
| 2026-04-26 10:22 | 40.73977 | 28.91972 | 24032 ft | 412 kts | 176° |
| 2026-04-26 10:22 | 40.71119 | 28.92202 | 24026 ft | 412 kts | 176° |
| 2026-04-26 10:22 | 40.68257 | 28.92431 | 24036 ft | 411 kts | 176° |
| 2026-04-26 10:22 | 40.65402 | 28.92659 | 23960 ft | 410 kts | 176° |
| 2026-04-26 10:23 | 40.62556 | 28.92884 | 24026 ft | 411 kts | 176° |
| 2026-04-26 10:23 | 40.59700 | 28.93113 | 24069 ft | 410 kts | 176° |
| 2026-04-26 10:23 | 40.56873 | 28.93635 | 24302 ft | 412 kts | 166° |
| 2026-04-26 10:23 | 40.54141 | 28.94784 | 24535 ft | 413 kts | 156° |
| 2026-04-26 10:24 | 40.51588 | 28.96541 | 24781 ft | 415 kts | 147° |
| 2026-04-26 10:24 | 40.49201 | 28.98590 | 24956 ft | 416 kts | 146° |
| 2026-04-26 10:24 | 40.46782 | 29.00666 | 25020 ft | 415 kts | 146° |
| 2026-04-26 10:24 | 40.44370 | 29.02728 | 25026 ft | 413 kts | 146° |
| 2026-04-26 10:25 | 40.41963 | 29.04779 | 25022 ft | 412 kts | 146° |
| 2026-04-26 10:25 | 40.39593 | 29.06788 | 25018 ft | 400 kts | 146° |
| 2026-04-26 10:25 | 40.37270 | 29.08754 | 25022 ft | 396 kts | 146° |
| 2026-04-26 10:25 | 40.34957 | 29.10715 | 25018 ft | 395 kts | 146° |
| 2026-04-26 10:26 | 40.32650 | 29.12676 | 25015 ft | 395 kts | 146° |
| 2026-04-26 10:26 | 40.30342 | 29.14638 | 25014 ft | 395 kts | 146° |
| 2026-04-26 10:26 | 40.28039 | 29.16594 | 25012 ft | 395 kts | 146° |
| 2026-04-26 10:26 | 40.25737 | 29.18547 | 25013 ft | 395 kts | 146° |
| 2026-04-26 10:27 | 40.23460 | 29.20471 | 25010 ft | 395 kts | 146° |
| 2026-04-26 10:27 | 40.21155 | 29.22416 | 25009 ft | 393 kts | 146° |
| 2026-04-26 10:27 | 40.18853 | 29.24248 | 25007 ft | 384 kts | 152° |
| 2026-04-26 10:27 | 40.16405 | 29.25629 | 25007 ft | 383 kts | 159° |
| 2026-04-26 10:28 | 40.13903 | 29.26814 | 25002 ft | 382 kts | 159° |
| 2026-04-26 10:28 | 40.11454 | 29.28115 | 24687 ft | 377 kts | 149° |
| 2026-04-26 10:28 | 40.09357 | 29.30121 | 24297 ft | 373 kts | 138° |
| 2026-04-26 10:28 | 40.07404 | 29.32344 | 23906 ft | 372 kts | 138° |
| 2026-04-26 10:29 | 40.05457 | 29.34565 | 23502 ft | 370 kts | 139° |
| 2026-04-26 10:29 | 40.03518 | 29.36741 | 23037 ft | 368 kts | 138° |
| 2026-04-26 10:29 | 40.01593 | 29.38933 | 22602 ft | 365 kts | 138° |
| 2026-04-26 10:29 | 39.99720 | 29.41083 | 22183 ft | 363 kts | 138° |
| 2026-04-26 10:30 | 39.97833 | 29.43257 | 21763 ft | 361 kts | 138° |
| 2026-04-26 10:30 | 39.95959 | 29.45415 | 21350 ft | 358 kts | 138° |
| 2026-04-26 10:30 | 39.94095 | 29.47553 | 20941 ft | 356 kts | 138° |
| 2026-04-26 10:30 | 39.92233 | 29.49682 | 20539 ft | 355 kts | 139° |
| 2026-04-26 10:31 | 39.90382 | 29.51796 | 20141 ft | 353 kts | 139° |
| 2026-04-26 10:31 | 39.88541 | 29.53896 | 19745 ft | 351 kts | 139° |
| 2026-04-26 10:31 | 39.86708 | 29.55986 | 19361 ft | 350 kts | 139° |
| 2026-04-26 10:31 | 39.84881 | 29.58064 | 18984 ft | 348 kts | 139° |
| 2026-04-26 10:32 | 39.83061 | 29.60131 | 18605 ft | 347 kts | 139° |
| 2026-04-26 10:32 | 39.81247 | 29.62187 | 18224 ft | 345 kts | 139° |
| 2026-04-26 10:32 | 39.79442 | 29.64236 | 17802 ft | 343 kts | 139° |
| 2026-04-26 10:32 | 39.77649 | 29.66273 | 17372 ft | 342 kts | 140° |
| 2026-04-26 10:33 | 39.75889 | 29.68274 | 16961 ft | 340 kts | 140° |
| 2026-04-26 10:33 | 39.74116 | 29.70287 | 16540 ft | 338 kts | 140° |
| 2026-04-26 10:33 | 39.72349 | 29.72292 | 16141 ft | 336 kts | 140° |
| 2026-04-26 10:33 | 39.70588 | 29.74283 | 15742 ft | 335 kts | 140° |
| 2026-04-26 10:34 | 39.68846 | 29.76252 | 15294 ft | 328 kts | 140° |
| 2026-04-26 10:34 | 39.67152 | 29.78168 | 14811 ft | 318 kts | 141° |
| 2026-04-26 10:34 | 39.65505 | 29.80030 | 14369 ft | 309 kts | 141° |
| 2026-04-26 10:34 | 39.63893 | 29.81851 | 14049 ft | 307 kts | 140° |
| 2026-04-26 10:35 | 39.62287 | 29.83664 | 13709 ft | 306 kts | 141° |
| 2026-04-26 10:35 | 39.60707 | 29.85451 | 13339 ft | 305 kts | 141° |
| 2026-04-26 10:35 | 39.59109 | 29.87256 | 12971 ft | 304 kts | 140° |
| 2026-04-26 10:35 | 39.57519 | 29.89049 | 12617 ft | 302 kts | 141° |
| 2026-04-26 10:36 | 39.55942 | 29.90828 | 12309 ft | 299 kts | 141° |
| 2026-04-26 10:36 | 39.54376 | 29.92591 | 12006 ft | 297 kts | 140° |
| 2026-04-26 10:36 | 39.52823 | 29.94339 | 11707 ft | 294 kts | 141° |
| 2026-04-26 10:36 | 39.51279 | 29.96073 | 11408 ft | 293 kts | 141° |
| 2026-04-26 10:37 | 39.49745 | 29.97791 | 11112 ft | 291 kts | 141° |
| 2026-04-26 10:37 | 39.48220 | 29.99496 | 10820 ft | 289 kts | 141° |
| 2026-04-26 10:37 | 39.46729 | 30.01164 | 10528 ft | 286 kts | 141° |
| 2026-04-26 10:37 | 39.45227 | 30.02846 | 10246 ft | 285 kts | 141° |
| 2026-04-26 10:38 | 39.43683 | 30.04427 | 9960 ft | 282 kts | 150° |
| 2026-04-26 10:38 | 39.41945 | 30.05550 | 9634 ft | 278 kts | 162° |
| 2026-04-26 10:38 | 39.40091 | 30.06160 | 9336 ft | 272 kts | 171° |
| 2026-04-26 10:38 | 39.38258 | 30.06570 | 9028 ft | 263 kts | 177° |
| 2026-04-26 10:39 | 39.36461 | 30.06480 | 8711 ft | 255 kts | 192° |
| 2026-04-26 10:39 | 39.34799 | 30.05798 | 8403 ft | 248 kts | 207° |
| 2026-04-26 10:39 | 39.33366 | 30.04609 | 8102 ft | 242 kts | 221° |
| 2026-04-26 10:39 | 39.32119 | 30.03218 | 7800 ft | 238 kts | 221° |
| 2026-04-26 10:40 | 39.30872 | 30.01837 | 7493 ft | 234 kts | 220° |
| 2026-04-26 10:40 | 39.29652 | 30.00491 | 7208 ft | 227 kts | 220° |
| 2026-04-26 10:40 | 39.28464 | 29.99186 | 6926 ft | 224 kts | 220° |
| 2026-04-26 10:40 | 39.27271 | 29.97874 | 6629 ft | 226 kts | 220° |
| 2026-04-26 10:41 | 39.26076 | 29.96562 | 6340 ft | 224 kts | 220° |
| 2026-04-26 10:41 | 39.24782 | 29.95507 | 6026 ft | 220 kts | 195° |
| 2026-04-26 10:41 | 39.23305 | 29.95527 | 5832 ft | 211 kts | 161° |
| 2026-04-26 10:41 | 39.22156 | 29.96526 | 5697 ft | 198 kts | 131° |
| 2026-04-26 10:42 | 39.21299 | 29.97829 | 5572 ft | 184 kts | 131° |
| 2026-04-26 10:42 | 39.20485 | 29.99052 | 5415 ft | 177 kts | 131° |
| 2026-04-26 10:42 | 39.19688 | 30.00246 | 5295 ft | 174 kts | 131° |
| 2026-04-26 10:42 | 39.18920 | 30.01439 | 5231 ft | 172 kts | 129° |
| 2026-04-26 10:43 | 39.18166 | 30.02639 | 5125 ft | 172 kts | 131° |
| 2026-04-26 10:43 | 39.17387 | 30.03821 | 4926 ft | 172 kts | 131° |
| 2026-04-26 10:43 | 39.16620 | 30.04962 | 4736 ft | 165 kts | 132° |
| 2026-04-26 10:43 | 39.15897 | 30.06031 | 4520 ft | 151 kts | 131° |
| 2026-04-26 10:44 | 39.15221 | 30.07027 | 4320 ft | 146 kts | 132° |
| 2026-04-26 10:44 | 39.14555 | 30.08008 | 4114 ft | 145 kts | 132° |
| 2026-04-26 10:44 | 39.13885 | 30.08993 | 3907 ft | 146 kts | 132° |
| 2026-04-26 10:44 | 39.13223 | 30.09974 | 3722 ft | 148 kts | 132° |
| 2026-04-26 10:45 | 39.12541 | 30.10969 | 3532 ft | 148 kts | 133° |
| 2026-04-26 10:45 | 39.11871 | 30.11959 | 3359 ft | 143 kts | 133° |
| 2026-04-26 10:45 | 39.11292 | 30.12805 | 3351 ft | 105 kts | 131° |
| 2026-04-26 10:45 | 39.10890 | 30.13395 | 3353 ft | 73 kts | 131° |
| 2026-04-26 10:46 | 39.10591 | 30.13834 | 3351 ft | 52 kts | 131° |
| 2026-04-26 10:46 | 39.10436 | 30.14060 | 3359 ft | 20 kts | 131° |
| 2026-04-26 10:46 | 39.10352 | 30.14184 | 3352 ft | 11 kts | 131° |
| 2026-04-26 10:46 | 39.10323 | 30.14245 | 3355 ft | 8 kts | 99° |
| 2026-04-26 10:47 | 39.10325 | 30.14322 | 3356 ft | 9 kts | 102° |
| 2026-04-26 10:47 | 39.10278 | 30.14322 | 3365 ft | 9 kts | 239° |
| 2026-04-26 10:47 | 39.10316 | 30.14238 | 3362 ft | 15 kts | 313° |
| 2026-04-26 10:47 | 39.10401 | 30.14116 | 3353 ft | 21 kts | 311° |
| 2026-04-26 10:48 | 39.10504 | 30.13958 | 3359 ft | 25 kts | 309° |
| 2026-04-26 10:48 | 39.10622 | 30.13788 | 3351 ft | 26 kts | 311° |
| 2026-04-26 10:48 | 39.10746 | 30.13604 | 3356 ft | 28 kts | 311° |
| 2026-04-26 10:48 | 39.10879 | 30.13414 | 3353 ft | 30 kts | 311° |
| 2026-04-26 10:49 | 39.11006 | 30.13226 | 3361 ft | 27 kts | 311° |
| 2026-04-26 10:49 | 39.11126 | 30.13050 | 3357 ft | 27 kts | 311° |
| 2026-04-26 10:49 | 39.11225 | 30.12905 | 3350 ft | 17 kts | 311° |
| 2026-04-26 10:49 | 39.11293 | 30.12819 | 3355 ft | 12 kts | 340° |
| 2026-04-26 10:50 | 39.11361 | 30.12876 | 3359 ft | 13 kts | 41° |
| 2026-04-26 10:50 | 39.11409 | 30.12930 | 3354 ft | 15 kts | 40° |
| 2026-04-26 10:50 | 39.11528 | 30.13061 | 3355 ft | 16 kts | 41° |
| 2026-04-26 10:50 | 39.11595 | 30.13120 | 3351 ft | 7 kts | 358° |
| 2026-04-26 10:51 | 39.11602 | 30.13118 | 3351 ft | 0 kts | 348° |
| 2026-04-26 10:51 | 39.11637 | 30.13128 | 3357 ft | 3 kts | 50° |
| 2026-04-26 10:51 | 39.11641 | 30.13161 | 3351 ft | 2 kts | 89° |
| 2026-04-26 10:52 | 39.11641 | 30.13171 | 3351 ft | 0 kts | 90° |